createdAt,value
2018-01-13T00:00:40.887Z,19.60
2018-01-13T00:03:09.542Z,21.80
2018-01-13T00:05:37.915Z,22.07
2018-01-13T00:08:06.841Z,21.10
2018-01-13T00:10:35.291Z,21.70
2018-01-13T00:13:03.689Z,22.17
2018-01-13T00:15:32.354Z,20.60
2018-01-13T00:18:00.749Z,22.70
2018-01-13T00:20:30.167Z,24.67
2018-01-13T00:22:58.825Z,20.50
2018-01-13T00:25:27.193Z,23.93
2018-01-13T00:27:55.284Z,23.80
2018-01-13T00:30:24.089Z,22.00
2018-01-13T00:32:52.668Z,21.97
2018-01-13T00:35:21.322Z,24.00
2018-01-13T00:37:50.754Z,22.30
2018-01-13T00:40:19.148Z,22.47
2018-01-13T00:42:47.804Z,23.97
2018-01-13T00:45:16.179Z,24.60
2018-01-13T00:47:45.602Z,23.90
2018-01-13T00:50:14.356Z,23.48
2018-01-13T00:52:43.044Z,23.77
2018-01-13T00:55:11.413Z,23.77
2018-01-13T00:57:40.020Z,22.67
2018-01-13T01:00:08.692Z,24.10
2018-01-13T01:02:37.089Z,23.90
2018-01-13T01:05:05.741Z,22.87
2018-01-13T01:07:34.149Z,22.70
2018-01-13T01:10:02.613Z,23.77
2018-01-13T01:12:31.069Z,23.50
2018-01-13T01:14:59.453Z,22.50
2018-01-13T01:17:27.820Z,22.73
2018-01-13T01:19:56.464Z,23.17
2018-01-13T01:22:24.973Z,24.07
2018-01-13T01:24:54.105Z,23.43
2018-01-13T01:27:22.584Z,23.87
2018-01-13T01:29:51.204Z,22.90
2018-01-13T01:32:19.685Z,24.57
2018-01-13T01:34:48.376Z,25.23
2018-01-13T01:37:17.032Z,25.35
2018-01-13T01:39:45.672Z,24.33
2018-01-13T01:42:14.312Z,23.65
2018-01-13T01:44:42.996Z,25.13
2018-01-13T01:47:11.638Z,25.63
2018-01-13T01:49:40.012Z,25.67
2018-01-13T01:52:08.672Z,26.05
2018-01-13T01:54:37.042Z,23.83
2018-01-13T01:57:06.186Z,23.40
2018-01-13T01:59:34.571Z,25.73
2018-01-13T02:02:02.945Z,24.63
2018-01-13T02:04:31.125Z,24.67
2018-01-13T02:06:59.501Z,25.40
2018-01-13T02:09:28.917Z,28.42
2018-01-13T02:11:57.553Z,27.15
2018-01-13T02:14:26.704Z,28.00
2018-01-13T02:16:55.401Z,25.47
2018-01-13T02:19:23.773Z,28.30
2018-01-13T02:21:52.439Z,23.83
2018-01-13T02:24:20.996Z,27.63
2018-01-13T02:26:49.364Z,29.17
2018-01-13T02:29:19.536Z,26.83
2018-01-13T02:31:48.381Z,28.85
2018-01-13T02:34:16.753Z,27.93
2018-01-13T02:36:46.025Z,29.70
2018-01-13T02:39:14.724Z,27.97
2018-01-13T02:41:43.160Z,27.33
2018-01-13T02:44:11.914Z,29.80
2018-01-13T02:46:40.426Z,29.07
2018-01-13T02:49:08.791Z,30.73
2018-01-13T02:51:37.438Z,27.52
2018-01-13T02:54:06.576Z,27.13
2018-01-13T02:56:35.975Z,29.27
2018-01-13T02:59:04.634Z,29.98
2018-01-13T03:01:34.056Z,29.30
2018-01-13T03:04:03.250Z,30.00
2018-01-13T03:06:31.727Z,28.70
2018-01-13T03:09:00.173Z,29.67
2018-01-13T03:11:29.322Z,30.20
2018-01-13T03:13:57.709Z,31.08
2018-01-13T03:16:26.353Z,28.27
2018-01-13T03:18:54.749Z,29.63
2018-01-13T03:21:23.409Z,28.20
2018-01-13T03:23:51.508Z,29.90
2018-01-13T03:26:20.081Z,30.80
2018-01-13T03:28:48.501Z,30.97
2018-01-13T03:31:17.155Z,29.80
2018-01-13T03:33:45.536Z,30.47
2018-01-13T03:36:14.185Z,29.12
2018-01-13T03:38:42.826Z,29.40
2018-01-13T03:41:11.384Z,29.57
2018-01-13T03:43:40.250Z,28.40
2018-01-13T03:46:08.628Z,28.20
2018-01-13T03:48:37.255Z,30.40
2018-01-13T03:51:05.897Z,31.08
2018-01-13T03:53:34.265Z,28.03
2018-01-13T03:56:02.645Z,28.27
2018-01-13T03:58:31.299Z,31.70
2018-01-13T04:01:00.429Z,33.50
2018-01-13T04:03:29.081Z,32.50
2018-01-13T04:05:57.734Z,31.58
2018-01-13T04:08:26.379Z,31.97
2018-01-13T04:10:55.582Z,30.63
2018-01-13T04:13:24.057Z,31.15
2018-01-13T04:15:53.470Z,30.70
2018-01-13T04:18:21.988Z,29.70
2018-01-13T04:20:50.661Z,28.60
2018-01-13T04:23:19.282Z,27.30
2018-01-13T04:25:48.418Z,28.20
2018-01-13T04:28:17.853Z,27.80
2018-01-13T04:30:46.217Z,27.33
2018-01-13T04:33:14.580Z,28.60
2018-01-13T04:35:43.244Z,29.93
2018-01-13T04:38:11.612Z,31.07
2018-01-13T04:40:40.755Z,29.80
2018-01-13T04:43:09.140Z,29.90
2018-01-13T04:45:37.796Z,30.87
2018-01-13T04:48:06.456Z,28.93
2018-01-13T04:50:34.842Z,30.00
2018-01-13T04:53:04.260Z,30.12
2018-01-13T04:55:32.628Z,33.20
2018-01-13T04:58:01.130Z,31.80
2018-01-13T05:00:29.589Z,31.73
2018-01-13T05:02:58.061Z,30.07
2018-01-13T05:05:26.442Z,32.50
2018-01-13T05:07:55.046Z,30.20
2018-01-13T05:10:24.443Z,30.35
2018-01-13T05:12:53.105Z,31.87
2018-01-13T05:15:22.530Z,29.87
2018-01-13T05:17:51.171Z,30.30
2018-01-13T05:20:20.317Z,31.10
2018-01-13T05:22:48.873Z,29.07
2018-01-13T05:25:17.489Z,30.03
2018-01-13T05:27:45.864Z,29.73
2018-01-13T05:30:14.253Z,30.80
2018-01-13T05:32:42.901Z,28.98
2018-01-13T05:35:12.317Z,28.25
2018-01-13T05:37:40.684Z,31.20
2018-01-13T05:40:09.204Z,29.37
2018-01-13T05:42:37.874Z,29.42
2018-01-13T05:45:06.237Z,28.37
2018-01-13T05:47:34.880Z,28.80
2018-01-13T05:50:03.744Z,27.92
2018-01-13T05:52:32.384Z,31.20
2018-01-13T05:55:01.801Z,29.10
2018-01-13T05:57:31.196Z,28.50
2018-01-13T05:59:59.840Z,28.27
2018-01-13T06:02:28.494Z,28.37
2018-01-13T06:04:56.872Z,29.37
2018-01-13T06:07:25.240Z,28.70
2018-01-13T06:09:53.718Z,29.50
2018-01-13T06:12:23.103Z,28.07
2018-01-13T06:14:51.748Z,26.95
2018-01-13T06:17:20.406Z,27.67
2018-01-13T06:19:48.805Z,26.70
2018-01-13T06:22:17.232Z,26.03
2018-01-13T06:24:45.602Z,28.03
2018-01-13T06:27:13.998Z,24.60
2018-01-13T06:29:42.650Z,25.00
2018-01-13T06:32:11.126Z,24.65
2018-01-13T06:34:39.505Z,23.90
2018-01-13T06:37:08.925Z,23.40
2018-01-13T06:39:38.327Z,25.88
2018-01-13T06:42:06.737Z,26.97
2018-01-13T06:44:35.291Z,24.33
2018-01-13T06:47:03.928Z,26.33
2018-01-13T06:49:33.077Z,25.53
2018-01-13T06:52:01.753Z,25.50
2018-01-13T06:54:30.400Z,25.50
2018-01-13T06:56:58.780Z,25.23
2018-01-13T06:59:27.425Z,26.75
2018-01-13T07:01:55.790Z,24.67
2018-01-13T07:04:24.489Z,25.07
2018-01-13T07:06:53.118Z,25.63
2018-01-13T07:09:22.532Z,24.60
2018-01-13T07:11:50.924Z,25.80
2018-01-13T07:14:20.119Z,25.57
2018-01-13T07:16:49.520Z,25.85
2018-01-13T07:19:17.948Z,25.63
2018-01-13T07:21:46.568Z,26.70
2018-01-13T07:24:14.967Z,25.87
2018-01-13T07:26:43.663Z,25.53
2018-01-13T07:29:12.308Z,25.57
2018-01-13T07:31:40.900Z,23.97
2018-01-13T07:34:10.328Z,22.25
2018-01-13T07:36:38.983Z,23.00
2018-01-13T07:39:08.396Z,21.67
2018-01-13T07:41:36.901Z,23.80
2018-01-13T07:44:05.273Z,21.83
2018-01-13T07:46:33.857Z,22.42
2018-01-13T07:49:02.524Z,23.50
2018-01-13T07:51:31.209Z,22.07
2018-01-13T07:53:59.959Z,21.67
2018-01-13T07:56:28.377Z,23.20
2018-01-13T07:58:57.017Z,21.37
2018-01-13T08:01:26.153Z,21.27
2018-01-13T08:03:54.528Z,19.55
2018-01-13T08:06:23.749Z,20.65
2018-01-13T08:08:52.209Z,20.12
2018-01-13T08:11:21.293Z,22.60
2018-01-13T08:13:50.697Z,18.95
2018-01-13T08:16:19.166Z,20.33
2018-01-13T08:18:48.596Z,18.55
2018-01-13T08:21:16.980Z,18.97
2018-01-13T08:23:45.535Z,19.77
2018-01-13T08:26:13.924Z,21.57
2018-01-13T08:28:42.584Z,18.80
2018-01-13T08:31:11.236Z,20.65
2018-01-13T08:33:39.644Z,18.87
2018-01-13T08:36:08.292Z,21.03
2018-01-13T08:38:37.640Z,20.03
2018-01-13T08:41:06.044Z,20.70
2018-01-13T08:43:34.412Z,19.70
2018-01-13T08:46:03.306Z,21.65
2018-01-13T08:48:31.775Z,22.58
2018-01-13T08:51:00.150Z,22.33
2018-01-13T08:53:28.843Z,21.23
2018-01-13T08:55:57.219Z,21.97
2018-01-13T08:58:25.673Z,23.10
2018-01-13T09:00:54.089Z,22.60
2018-01-13T09:03:22.553Z,21.87
2018-01-13T09:05:51.009Z,23.83
2018-01-13T09:08:20.345Z,23.37
2018-01-13T09:10:48.737Z,23.00
2018-01-13T09:13:17.395Z,21.80
2018-01-13T09:15:45.779Z,23.87
2018-01-13T09:18:14.364Z,23.03
2018-01-13T09:20:43.009Z,21.17
2018-01-13T09:23:11.472Z,23.60
2018-01-13T09:25:40.121Z,23.05
2018-01-13T09:28:08.500Z,21.67
2018-01-13T09:30:37.151Z,21.45
2018-01-13T09:33:05.848Z,21.67
2018-01-13T09:35:34.501Z,22.83
2018-01-13T09:38:04.037Z,22.90
2018-01-13T09:40:32.412Z,19.27
2018-01-13T09:43:00.778Z,20.27
2018-01-13T09:45:29.168Z,19.63
2018-01-13T09:47:58.588Z,20.12
2018-01-13T09:50:27.152Z,17.63
2018-01-13T09:52:55.624Z,17.20
2018-01-13T09:55:24.316Z,18.90
2018-01-13T09:57:53.730Z,19.98
2018-01-13T10:00:22.183Z,19.07
2018-01-13T10:02:50.569Z,17.67
2018-01-13T10:05:20.182Z,18.50
2018-01-13T10:07:48.889Z,17.73
2018-01-13T10:10:17.273Z,19.57
2018-01-13T10:12:45.909Z,19.53
2018-01-13T10:15:14.529Z,17.17
2018-01-13T10:17:43.330Z,17.90
2018-01-13T10:20:11.986Z,17.87
2018-01-13T10:22:40.396Z,17.00
2018-01-13T10:25:08.776Z,17.80
2018-01-13T10:27:37.923Z,18.07
2018-01-13T10:30:06.297Z,17.27
2018-01-13T10:32:34.685Z,18.40
2018-01-13T10:35:03.677Z,17.12
2018-01-13T10:37:33.805Z,16.03
2018-01-13T10:40:02.192Z,16.30
2018-01-13T10:42:30.560Z,17.37
2018-01-13T10:44:59.988Z,15.00
2018-01-13T10:47:28.576Z,16.07
2018-01-13T10:49:57.854Z,17.57
2018-01-13T10:52:26.313Z,15.97
2018-01-13T10:54:55.742Z,15.48
2018-01-13T10:57:24.928Z,15.77
2018-01-13T10:59:53.588Z,14.15
2018-01-13T11:02:22.043Z,16.40
2018-01-13T11:04:50.716Z,13.90
2018-01-13T11:07:19.389Z,14.03
2018-01-13T11:09:47.768Z,13.40
2018-01-13T11:12:16.432Z,13.73
2018-01-13T11:14:44.890Z,15.40
2018-01-13T11:17:14.068Z,15.50
2018-01-13T11:19:42.458Z,14.90
2018-01-13T11:22:11.085Z,14.87
2018-01-13T11:24:39.461Z,15.07
2018-01-13T11:27:08.617Z,15.57
2018-01-13T11:29:36.981Z,15.50
2018-01-13T11:32:05.657Z,14.27
2018-01-13T11:34:34.435Z,15.75
2018-01-13T11:37:03.573Z,15.13
2018-01-13T11:39:32.241Z,16.17
2018-01-13T11:42:00.609Z,16.40
2018-01-13T11:44:30.048Z,16.37
2018-01-13T11:46:58.456Z,16.13
2018-01-13T11:49:27.088Z,15.23
2018-01-13T11:51:56.593Z,13.67
2018-01-13T11:54:25.225Z,15.00
2018-01-13T11:56:54.493Z,15.10
2018-01-13T11:59:22.868Z,16.87
2018-01-13T12:01:51.529Z,15.40
2018-01-13T12:04:20.186Z,16.75
2018-01-13T12:06:49.435Z,16.37
2018-01-13T12:09:17.814Z,15.90
2018-01-13T12:11:46.186Z,14.83
2018-01-13T12:14:14.568Z,15.87
2018-01-13T12:16:42.952Z,16.57
2018-01-13T12:19:11.546Z,15.27
2018-01-13T12:21:39.925Z,14.43
2018-01-13T12:24:08.835Z,17.27
2018-01-13T12:26:37.478Z,17.60
2018-01-13T12:29:06.133Z,14.97
2018-01-13T12:31:34.517Z,15.80
2018-01-13T12:34:03.169Z,17.58
2018-01-13T12:36:31.449Z,16.07
2018-01-13T12:39:00.593Z,16.10
2018-01-13T12:41:30.001Z,14.48
2018-01-13T12:43:59.291Z,14.80
2018-01-13T12:46:27.685Z,14.87
2018-01-13T12:48:56.125Z,14.17
2018-01-13T12:51:24.505Z,14.10
2018-01-13T12:53:53.933Z,14.52
2018-01-13T12:56:22.313Z,14.13
2018-01-13T12:58:50.925Z,12.57
2018-01-13T13:01:19.588Z,14.85
2018-01-13T13:03:47.955Z,13.83
2018-01-13T13:06:16.649Z,15.33
2018-01-13T13:08:45.164Z,13.30
2018-01-13T13:11:14.722Z,15.20
2018-01-13T13:13:43.830Z,16.75
2018-01-13T13:16:13.036Z,14.80
2018-01-13T13:18:41.586Z,15.30
2018-01-13T13:21:10.908Z,16.83
2018-01-13T13:23:39.311Z,16.20
2018-01-13T13:26:07.676Z,16.83
2018-01-13T13:28:36.166Z,14.93
2018-01-13T13:31:04.884Z,16.63
2018-01-13T13:33:33.594Z,16.60
2018-01-13T13:36:01.984Z,15.68
2018-01-13T13:38:30.540Z,16.03
2018-01-13T13:40:59.545Z,16.47
2018-01-13T13:43:28.968Z,16.40
2018-01-13T13:45:57.362Z,16.63
2018-01-13T13:48:26.009Z,14.17
2018-01-13T13:50:54.384Z,15.60
2018-01-13T13:53:23.651Z,16.27
2018-01-13T13:55:52.417Z,15.63
2018-01-13T13:58:20.961Z,16.73
2018-01-13T14:00:50.721Z,16.40
2018-01-13T14:03:19.381Z,15.93
2018-01-13T14:05:47.746Z,17.83
2018-01-13T14:08:16.409Z,15.98
2018-01-13T14:10:44.831Z,17.50
2018-01-13T14:13:13.480Z,15.95
2018-01-13T14:15:42.809Z,15.70
2018-01-13T14:18:11.193Z,15.70
2018-01-13T14:20:39.576Z,17.90
2018-01-13T14:23:07.961Z,17.00
2018-01-13T14:25:36.440Z,17.70
2018-01-13T14:28:05.288Z,18.85
2018-01-13T14:30:34.508Z,19.17
2018-01-13T14:33:02.944Z,17.90
2018-01-13T14:35:31.592Z,18.20
2018-01-13T14:38:00.015Z,18.83
2018-01-13T14:40:28.687Z,20.42
2018-01-13T14:42:57.390Z,20.00
2018-01-13T14:45:25.768Z,18.37
2018-01-13T14:47:55.074Z,18.10
2018-01-13T14:50:23.458Z,18.00
2018-01-13T14:52:51.844Z,16.00
2018-01-13T14:55:21.026Z,19.50
2018-01-13T14:57:49.485Z,18.53
2018-01-13T15:00:18.138Z,19.53
2018-01-13T15:02:46.505Z,18.47
2018-01-13T15:05:15.157Z,18.73
2018-01-13T15:07:43.813Z,19.12
2018-01-13T15:10:12.199Z,17.12
2018-01-13T15:12:40.653Z,19.40
2018-01-13T15:15:09.844Z,20.67
2018-01-13T15:17:39.849Z,20.83
2018-01-13T15:20:08.220Z,21.33
2018-01-13T15:22:37.606Z,19.13
2018-01-13T15:25:05.977Z,21.50
2018-01-13T15:27:34.628Z,18.98
2018-01-13T15:30:03.075Z,18.80
2018-01-13T15:32:31.486Z,19.50
2018-01-13T15:35:00.108Z,18.90
2018-01-13T15:37:28.576Z,18.73
2018-01-13T15:39:57.172Z,19.80
2018-01-13T15:42:25.832Z,21.02
2018-01-13T15:44:55.353Z,20.33
2018-01-13T15:47:24.110Z,19.75
2018-01-13T15:49:52.812Z,21.90
2018-01-13T15:52:21.342Z,23.13
2018-01-13T15:54:49.753Z,20.53
2018-01-13T15:57:19.166Z,21.55
2018-01-13T15:59:47.557Z,21.30
2018-01-13T16:02:16.077Z,21.63
2018-01-13T16:04:44.254Z,20.17
2018-01-13T16:07:12.907Z,20.80
2018-01-13T16:09:42.306Z,19.97
2018-01-13T16:12:11.285Z,19.57
2018-01-13T16:14:39.713Z,20.30
2018-01-13T16:17:08.853Z,17.70
2018-01-13T16:19:38.265Z,19.65
2018-01-13T16:22:06.977Z,20.58
2018-01-13T16:24:35.548Z,21.67
2018-01-13T16:27:03.935Z,22.30
2018-01-13T16:29:32.541Z,18.87
2018-01-13T16:32:02.017Z,19.93
2018-01-13T16:34:30.400Z,18.40
2018-01-13T16:36:59.051Z,18.10
2018-01-13T16:39:27.471Z,18.77
2018-01-13T16:41:55.512Z,19.10
2018-01-13T16:44:24.206Z,19.05
2018-01-13T16:46:52.670Z,19.30
2018-01-13T16:49:21.266Z,19.47
2018-01-13T16:51:49.316Z,17.27
2018-01-13T16:54:17.990Z,18.10
2018-01-13T16:56:46.365Z,19.70
2018-01-13T16:59:14.848Z,18.57
2018-01-13T17:01:43.421Z,19.47
2018-01-13T17:04:11.813Z,16.97
2018-01-13T17:06:41.241Z,18.15
2018-01-13T17:09:09.873Z,18.50
2018-01-13T17:11:38.413Z,16.23
2018-01-13T17:14:06.921Z,16.50
2018-01-13T17:16:36.057Z,17.47
2018-01-13T17:19:04.561Z,18.30
2018-01-13T17:21:32.945Z,17.20
2018-01-13T17:24:01.337Z,17.27
2018-01-13T17:26:29.981Z,18.87
2018-01-13T17:28:59.129Z,17.77
2018-01-13T17:31:28.262Z,18.00
2018-01-13T17:33:56.635Z,18.37
2018-01-13T17:36:26.073Z,18.00
2018-01-13T17:38:55.220Z,18.23
2018-01-13T17:41:24.645Z,17.80
2018-01-13T17:43:53.033Z,18.07
2018-01-13T17:46:21.770Z,16.03
2018-01-13T17:48:50.905Z,16.20
2018-01-13T17:51:20.338Z,15.95
2018-01-13T17:53:48.989Z,15.00
2018-01-13T17:56:17.392Z,16.90
2018-01-13T17:58:46.111Z,15.27
2018-01-13T18:01:15.060Z,16.53
2018-01-13T18:03:43.752Z,16.20
2018-01-13T18:06:12.269Z,16.43
2018-01-13T18:08:41.072Z,14.53
2018-01-13T18:11:09.612Z,16.13
2018-01-13T18:13:38.278Z,16.98
2018-01-13T18:16:06.660Z,15.90
2018-01-13T18:18:35.311Z,16.98
2018-01-13T18:21:03.722Z,16.27
2018-01-13T18:23:32.097Z,17.23
2018-01-13T18:26:00.478Z,17.03
2018-01-13T18:28:29.071Z,15.23
2018-01-13T18:30:57.675Z,16.57
2018-01-13T18:33:26.680Z,16.60
2018-01-13T18:35:56.249Z,13.48
2018-01-13T18:38:24.617Z,13.93
2018-01-13T18:40:54.013Z,13.77
2018-01-13T18:43:22.581Z,14.20
2018-01-13T18:45:51.263Z,14.10
2018-01-13T18:48:19.629Z,13.03
2018-01-13T18:50:48.015Z,11.63
2018-01-13T18:53:17.448Z,11.70
2018-01-13T18:55:46.300Z,11.90
2018-01-13T18:58:14.680Z,12.60
2018-01-13T19:00:43.327Z,12.20
2018-01-13T19:03:11.842Z,13.30
2018-01-13T19:05:40.234Z,11.20
2018-01-13T19:08:08.627Z,11.50
2018-01-13T19:10:37.271Z,10.45
2018-01-13T19:13:06.612Z,11.10
2018-01-13T19:15:35.306Z,11.57
2018-01-13T19:18:04.002Z,10.90
2018-01-13T19:20:32.396Z,10.63
2018-01-13T19:23:01.061Z,10.00
2018-01-13T19:25:29.811Z,10.45
2018-01-13T19:27:58.281Z,10.40
2018-01-13T19:30:26.657Z,10.73
2018-01-13T19:32:55.044Z,11.80
2018-01-13T19:35:24.468Z,10.23
2018-01-13T19:37:52.837Z,11.20
2018-01-13T19:40:22.303Z,13.23
2018-01-13T19:42:50.957Z,14.55
2018-01-13T19:45:20.317Z,13.20
2018-01-13T19:47:48.709Z,14.33
2018-01-13T19:50:17.101Z,12.77
2018-01-13T19:52:45.757Z,13.90
2018-01-13T19:55:15.182Z,12.60
2018-01-13T19:57:43.829Z,12.52
2018-01-13T20:00:12.220Z,11.23
2018-01-13T20:02:41.634Z,11.10
2018-01-13T20:05:10.024Z,11.13
2018-01-13T20:07:38.672Z,11.80
2018-01-13T20:10:07.162Z,11.03
2018-01-13T20:12:36.586Z,10.85
2018-01-13T20:15:04.962Z,10.87
2018-01-13T20:17:33.602Z,12.18
2018-01-13T20:20:02.084Z,12.13
2018-01-13T20:22:31.316Z,10.70
2018-01-13T20:24:59.785Z,11.00
2018-01-13T20:27:28.361Z,11.87
2018-01-13T20:29:56.878Z,13.50
2018-01-13T20:32:26.079Z,13.50
2018-01-13T20:34:54.459Z,14.20
2018-01-13T20:37:22.837Z,13.60
2018-01-13T20:39:51.225Z,12.63
2018-01-13T20:42:19.881Z,13.27
2018-01-13T20:44:48.356Z,12.03
2018-01-13T20:47:16.928Z,13.60
2018-01-13T20:49:45.319Z,12.57
2018-01-13T20:52:13.697Z,10.93
2018-01-13T20:54:42.194Z,13.00
2018-01-13T20:57:11.663Z,13.00
2018-01-13T20:59:40.589Z,11.60
2018-01-13T21:02:09.170Z,11.73
2018-01-13T21:04:37.568Z,10.43
2018-01-13T21:07:05.984Z,11.53
2018-01-13T21:09:34.482Z,12.83
2018-01-13T21:12:03.080Z,11.67
2018-01-13T21:14:31.453Z,11.10
2018-01-13T21:17:00.110Z,11.88
2018-01-13T21:19:29.552Z,11.50
2018-01-13T21:21:58.110Z,11.70
2018-01-13T21:24:27.560Z,13.50
2018-01-13T21:26:55.950Z,11.67
2018-01-13T21:29:25.091Z,11.77
2018-01-13T21:31:53.463Z,12.03
2018-01-13T21:34:21.921Z,12.80
2018-01-13T21:36:50.521Z,11.40
2018-01-13T21:39:19.934Z,13.90
2018-01-13T21:41:48.593Z,13.60
2018-01-13T21:44:17.415Z,12.33
2018-01-13T21:46:46.402Z,11.10
2018-01-13T21:49:15.136Z,12.20
2018-01-13T21:51:43.786Z,12.50
2018-01-13T21:54:12.437Z,13.95
2018-01-13T21:56:40.817Z,12.20
2018-01-13T21:59:09.181Z,13.50
2018-01-13T22:01:38.401Z,12.20
2018-01-13T22:04:07.817Z,13.03
2018-01-13T22:06:36.002Z,13.33
2018-01-13T22:09:03.986Z,12.00
2018-01-13T22:11:32.636Z,12.50
2018-01-13T22:14:01.285Z,13.82
2018-01-13T22:16:30.421Z,13.20
2018-01-13T22:18:58.801Z,13.87
2018-01-13T22:21:27.369Z,12.70
2018-01-13T22:23:56.789Z,12.60
2018-01-13T22:26:25.340Z,13.13
2018-01-13T22:28:53.877Z,13.97
2018-01-13T22:31:22.529Z,14.90
2018-01-13T22:33:50.920Z,13.03
2018-01-13T22:36:19.293Z,13.60
2018-01-13T22:38:47.664Z,13.67
2018-01-13T22:41:16.128Z,13.40
2018-01-13T22:43:44.602Z,13.10
2018-01-13T22:46:14.012Z,13.40
2018-01-13T22:48:42.500Z,14.70
2018-01-13T22:51:11.095Z,15.40
2018-01-13T22:53:39.473Z,17.17
2018-01-13T22:56:07.984Z,12.60
2018-01-13T22:58:37.129Z,13.90
2018-01-13T23:01:05.594Z,13.53
2018-01-13T23:03:34.106Z,13.18
2018-01-13T23:06:02.765Z,13.40
2018-01-13T23:08:31.970Z,13.60
2018-01-13T23:11:00.361Z,14.60
2018-01-13T23:13:28.741Z,15.50
2018-01-13T23:15:57.147Z,16.70
2018-01-13T23:18:25.815Z,15.18
2018-01-13T23:20:54.469Z,16.50
2018-01-13T23:23:23.929Z,18.23
2018-01-13T23:25:52.660Z,16.87
2018-01-13T23:28:22.069Z,16.67
2018-01-13T23:30:51.689Z,16.30
2018-01-13T23:33:20.341Z,17.80
2018-01-13T23:35:48.917Z,15.73
2018-01-13T23:38:17.288Z,15.40
2018-01-13T23:40:45.948Z,15.27
2018-01-13T23:43:14.597Z,17.00
2018-01-13T23:45:42.962Z,15.03
2018-01-13T23:48:11.348Z,16.40
2018-01-13T23:50:39.724Z,17.07
2018-01-13T23:53:08.100Z,17.37
2018-01-13T23:55:36.478Z,16.00
2018-01-13T23:58:04.850Z,15.10
